Time;durP1;ratioP1;P1;durP2;ratioP2;P2;SDS_P1;SDS_P2;PMS_P1;PMS_P2;Temp;Humidity;BMP_temperature;BMP_pressure;BME280_temperature;BME280_humidity;BME280_pressure;Samples;Min_cycle;Max_cycle;Signal;HPM_P1;HPM_P2
2022/05/04 00:01:36;;;;;;;17.23;2.53;;;8.10;99.90;;;;;;5042345;28;20473;-81
2022/05/04 00:04:02;;;;;;;11.80;2.35;;;7.90;99.90;;;;;;5041760;28;20050;-80
2022/05/04 00:06:28;;;;;;;16.88;2.53;;;7.80;99.90;;;;;;5042885;28;20165;-80
2022/05/04 00:08:53;;;;;;;11.07;2.35;;;8.00;99.90;;;;;;5042081;28;20061;-80
2022/05/04 00:11:19;;;;;;;9.18;2.53;;;7.90;99.90;;;;;;5041277;28;20054;-80
2022/05/04 00:13:45;;;;;;;14.60;2.10;;;8.00;99.90;;;;;;5042812;28;20470;-81
2022/05/04 00:16:11;;;;;;;13.75;2.80;;;8.00;99.90;;;;;;5041494;28;20568;-80
2022/05/04 00:18:36;;;;;;;12.90;2.53;;;7.90;99.90;;;;;;5042031;28;20100;-81
2022/05/04 00:21:02;;;;;;;12.98;2.80;;;8.00;99.90;;;;;;5025021;28;20050;-80
2022/05/04 00:23:27;;;;;;;11.05;1.98;;;7.90;99.90;;;;;;5042619;28;20080;-81
2022/05/04 00:25:53;;;;;;;14.77;2.40;;;7.90;99.90;;;;;;5041320;28;20050;-80
2022/05/04 00:28:19;;;;;;;11.38;2.30;;;7.90;99.90;;;;;;5010527;28;20508;-80
2022/05/04 00:30:45;;;;;;;14.63;2.53;;;7.90;99.90;;;;;;5040791;28;20149;-80
2022/05/04 00:33:11;;;;;;;14.73;1.90;;;8.10;99.90;;;;;;5041452;28;20464;-80
2022/05/04 00:35:37;;;;;;;11.20;2.10;;;7.90;99.90;;;;;;5042365;28;20042;-80
2022/05/04 00:38:03;;;;;;;9.95;2.22;;;7.90;99.90;;;;;;5025759;28;20461;-80
2022/05/04 00:40:29;;;;;;;14.15;2.05;;;7.90;99.90;;;;;;5009686;28;20046;-80
2022/05/04 00:42:54;;;;;;;13.00;2.33;;;8.10;99.90;;;;;;5041765;28;20572;-80
2022/05/04 00:45:20;;;;;;;8.57;1.80;;;8.50;99.90;;;;;;5040936;28;20038;-80
2022/05/04 00:47:46;;;;;;;12.43;2.58;;;7.90;99.90;;;;;;5041500;28;20055;-80
2022/05/04 00:50:12;;;;;;;17.48;2.65;;;7.90;99.90;;;;;;5041966;28;20497;-79
2022/05/04 00:52:42;;;;;;;12.60;2.30;;;7.90;99.90;;;;;;5041695;28;20128;-80
2022/05/04 00:55:09;;;;;;;16.83;2.72;;;7.90;99.90;;;;;;5007833;28;20061;-81
2022/05/04 01:00:24;;;;;;;16.23;2.25;;;7.90;99.90;;;;;;5040689;28;20053;-81
2022/05/04 01:02:50;;;;;;;8.15;2.17;;;7.90;99.90;;;;;;5041508;28;20071;-80
2022/05/04 01:05:16;;;;;;;15.85;2.60;;;8.20;99.90;;;;;;5041606;28;20560;-81
2022/05/04 01:07:43;;;;;;;7.72;2.08;;;7.90;99.90;;;;;;5041014;28;20054;-80
2022/05/04 01:10:11;;;;;;;12.60;1.95;;;8.20;99.90;;;;;;5041198;28;20104;-80
2022/05/04 01:12:46;;;;;;;14.30;2.50;;;7.80;99.90;;;;;;5025433;28;20505;-80
2022/05/04 01:15:12;;;;;;;10.02;2.50;;;7.80;99.90;;;;;;5040619;28;20444;-81
2022/05/04 01:17:37;;;;;;;18.40;2.65;;;7.80;99.90;;;;;;5041534;28;20045;-80
2022/05/04 01:20:03;;;;;;;11.50;2.10;;;7.90;99.90;;;;;;5040485;28;20474;-81
2022/05/04 01:22:29;;;;;;;7.53;2.50;;;7.80;99.90;;;;;;5040532;28;20084;-81
2022/05/04 01:24:55;;;;;;;10.30;1.95;;;7.80;99.90;;;;;;5040445;28;20057;-80
2022/05/04 01:27:20;;;;;;;7.10;1.63;;;7.80;99.90;;;;;;5042012;28;20058;-81
2022/05/04 01:29:47;;;;;;;11.23;2.20;;;7.80;99.90;;;;;;5039483;28;20065;-80
2022/05/04 01:32:13;;;;;;;10.95;2.00;;;7.80;99.90;;;;;;5040269;28;20508;-80
2022/05/04 01:34:39;;;;;;;10.15;1.92;;;7.80;99.90;;;;;;5041074;28;20050;-80
2022/05/04 01:37:04;;;;;;;14.77;2.20;;;7.90;99.90;;;;;;5023160;28;20076;-80
2022/05/04 01:39:30;;;;;;;12.88;2.80;;;7.80;99.90;;;;;;5041224;28;20042;-80
2022/05/04 01:42:03;;;;;;;8.93;2.28;;;7.80;99.90;;;;;;5040957;28;20081;-80
2022/05/04 01:44:29;;;;;;;16.52;3.15;;;7.80;99.90;;;;;;5023370;28;20038;-81
2022/05/04 01:46:55;;;;;;;16.50;2.22;;;7.80;99.90;;;;;;5040054;28;20092;-81
2022/05/04 01:49:21;;;;;;;11.55;2.13;;;7.90;99.90;;;;;;5041211;28;20077;-80
2022/05/04 01:51:46;;;;;;;9.45;2.25;;;7.90;99.90;;;;;;5040167;28;20983;-81
2022/05/04 01:54:12;;;;;;;9.95;1.88;;;7.80;99.90;;;;;;5040262;28;20050;-80
2022/05/04 01:56:38;;;;;;;14.60;2.25;;;7.80;99.90;;;;;;5039880;28;20052;-80
2022/05/04 01:59:04;;;;;;;20.35;2.17;;;7.80;99.90;;;;;;5024023;28;20050;-80
2022/05/04 02:01:29;;;;;;;12.43;2.60;;;7.90;99.90;;;;;;5039887;28;20038;-80
2022/05/04 02:03:55;;;;;;;10.90;2.00;;;7.80;99.90;;;;;;5039816;28;20044;-79
2022/05/04 02:06:21;;;;;;;11.23;2.15;;;7.80;99.90;;;;;;5040236;28;20726;-80
2022/05/04 02:08:47;;;;;;;12.65;2.67;;;7.80;99.90;;;;;;5040351;28;20049;-80
2022/05/04 02:11:13;;;;;;;16.20;2.78;;;7.80;99.90;;;;;;5039706;28;20049;-79
2022/05/04 02:13:38;;;;;;;15.77;2.60;;;7.80;99.90;;;;;;5040200;28;20034;-80
2022/05/04 02:16:05;;;;;;;16.08;2.45;;;7.90;99.90;;;;;;5039111;28;20495;-79
2022/05/04 02:18:33;;;;;;;12.82;2.25;;;7.70;99.90;;;;;;5040019;28;20042;-79
2022/05/04 02:20:58;;;;;;;14.20;2.95;;;7.80;99.90;;;;;;5039895;28;20046;-80
2022/05/04 02:23:24;;;;;;;14.23;2.47;;;7.80;99.90;;;;;;5040818;28;20050;-80
2022/05/04 02:25:50;;;;;;;9.63;2.28;;;7.80;99.90;;;;;;5038943;28;20045;-80
2022/05/04 02:28:16;;;;;;;13.52;2.38;;;7.80;99.90;;;;;;5040706;28;20086;-79
2022/05/04 02:30:43;;;;;;;11.63;2.55;;;7.80;99.90;;;;;;5038846;28;20513;-79
2022/05/04 02:33:10;;;;;;;9.32;2.22;;;7.80;99.90;;;;;;5007123;28;20136;-79
2022/05/04 02:38:21;;;;;;;16.33;2.40;;;7.70;99.90;;;;;;5008315;28;20065;-79
2022/05/04 02:40:47;;;;;;;14.25;2.20;;;7.70;99.90;;;;;;5039095;28;20088;-79
2022/05/04 02:43:13;;;;;;;13.02;2.30;;;7.70;99.90;;;;;;5040606;28;20042;-80
2022/05/04 02:45:39;;;;;;;14.45;2.72;;;7.70;99.90;;;;;;5038767;28;20041;-80
2022/05/04 02:48:06;;;;;;;14.35;2.47;;;7.70;99.90;;;;;;5021767;28;20816;-80
2022/05/04 02:50:32;;;;;;;15.40;2.17;;;7.70;99.90;;;;;;5039778;28;20052;-80
2022/05/04 02:52:57;;;;;;;7.60;2.25;;;7.70;99.90;;;;;;5022330;28;20042;-80
2022/05/04 02:55:23;;;;;;;11.88;1.98;;;7.70;99.90;;;;;;5039735;28;20072;-79
2022/05/04 02:57:49;;;;;;;19.48;2.28;;;7.70;99.90;;;;;;5022728;28;20041;-80
2022/05/04 03:00:15;;;;;;;10.65;2.17;;;7.70;99.90;;;;;;5021720;28;20053;-80
2022/05/04 03:02:41;;;;;;;7.30;1.90;;;7.70;99.90;;;;;;5039866;28;20049;-79
2022/05/04 03:05:08;;;;;;;8.98;1.77;;;7.70;99.90;;;;;;5022694;28;20445;-80
2022/05/04 03:07:35;;;;;;;6.68;1.90;;;7.70;99.90;;;;;;5038884;28;20081;-80
2022/05/04 03:10:01;;;;;;;10.85;2.03;;;7.70;99.90;;;;;;5022734;28;20034;-79
2022/05/04 03:12:27;;;;;;;10.13;1.85;;;7.70;99.90;;;;;;5023332;28;20401;-80
2022/05/04 03:14:53;;;;;;;11.90;2.70;;;7.70;99.90;;;;;;5038012;28;20046;-79
2022/05/04 03:17:19;;;;;;;11.82;2.10;;;7.70;99.90;;;;;;5039412;28;20049;-80
2022/05/04 03:19:45;;;;;;;9.77;1.80;;;7.70;99.90;;;;;;5038807;28;20034;-80
2022/05/04 03:22:11;;;;;;;10.32;2.40;;;7.70;99.90;;;;;;5006018;28;20050;-79
2022/05/04 03:24:38;;;;;;;8.40;2.03;;;7.70;99.90;;;;;;5023254;28;20057;-80
2022/05/04 03:27:05;;;;;;;6.70;2.08;;;7.70;99.90;;;;;;5039536;28;20057;-80
2022/05/04 03:29:31;;;;;;;19.23;2.97;;;7.70;99.90;;;;;;5038336;28;20050;-80
2022/05/04 03:31:56;;;;;;;13.63;2.35;;;7.60;99.90;;;;;;5038276;28;20061;-80
2022/05/04 03:34:22;;;;;;;10.98;2.10;;;7.80;99.90;;;;;;5039749;28;20042;-80
2022/05/04 03:36:48;;;;;;;10.73;2.15;;;7.60;99.90;;;;;;5038251;28;20085;-80
2022/05/04 03:39:13;;;;;;;12.48;3.03;;;7.60;99.90;;;;;;5039617;28;20060;-79
2022/05/04 03:41:39;;;;;;;13.60;2.78;;;7.80;99.90;;;;;;5008354;28;20396;-79
2022/05/04 03:44:05;;;;;;;9.90;1.85;;;7.50;99.90;;;;;;5038364;28;20057;-79
2022/05/04 03:46:44;;;;;;;10.95;2.10;;;7.50;99.90;;;;;;5042227;28;20523;-80
2022/05/04 03:49:10;;;;;;;8.07;1.80;;;7.50;99.90;;;;;;5042332;28;20595;-80
2022/05/04 03:51:36;;;;;;;12.35;2.05;;;7.50;99.90;;;;;;5043041;28;20077;-79
2022/05/04 03:54:02;;;;;;;8.25;2.35;;;7.50;99.90;;;;;;5042523;28;20119;-80
2022/05/04 03:56:27;;;;;;;9.85;2.33;;;7.60;99.90;;;;;;5042461;28;20088;-80
2022/05/04 03:58:53;;;;;;;6.38;2.05;;;7.50;99.90;;;;;;5042268;28;20037;-80
2022/05/04 04:01:20;;;;;;;9.40;1.70;;;7.50;99.90;;;;;;5042699;28;20046;-80
2022/05/04 04:03:45;;;;;;;8.75;1.85;;;7.50;99.90;;;;;;5042105;28;20046;-79
2022/05/04 04:06:11;;;;;;;12.82;2.22;;;7.50;99.90;;;;;;5042833;28;20504;-79
2022/05/04 04:08:37;;;;;;;13.25;2.45;;;7.50;99.90;;;;;;5010241;28;20543;-79
2022/05/04 04:11:03;;;;;;;7.75;2.15;;;7.50;99.90;;;;;;5040960;28;20049;-79
2022/05/04 04:13:29;;;;;;;13.35;2.50;;;7.40;99.90;;;;;;5042566;28;20137;-80
2022/05/04 04:15:55;;;;;;;11.32;2.25;;;7.50;99.90;;;;;;5041285;28;20125;-80
2022/05/04 04:18:23;;;;;;;10.27;2.38;;;7.50;99.90;;;;;;5008704;28;20056;-79
2022/05/04 04:23:34;;;;;;;10.38;2.30;;;7.70;99.90;;;;;;5042352;28;20127;-79
2022/05/04 04:26:01;;;;;;;10.52;2.40;;;7.60;99.90;;;;;;5009131;28;20041;-81
2022/05/04 04:28:28;;;;;;;9.35;2.40;;;7.60;99.90;;;;;;5057889;28;20044;-79
2022/05/04 04:30:53;;;;;;;13.18;2.10;;;7.60;99.90;;;;;;5010173;28;20512;-80
2022/05/04 04:33:22;;;;;;;11.40;2.45;;;7.60;99.90;;;;;;5028157;28;20062;-81
2022/05/04 04:35:51;;;;;;;10.75;1.92;;;7.60;99.90;;;;;;5028249;28;20045;-80
2022/05/04 04:38:17;;;;;;;8.02;1.75;;;7.70;99.90;;;;;;5028318;28;20046;-82
2022/05/04 04:40:42;;;;;;;10.93;2.40;;;7.70;99.90;;;;;;5028895;28;20064;-80
2022/05/04 04:43:08;;;;;;;11.25;2.00;;;7.60;99.90;;;;;;5011524;28;20053;-80
2022/05/04 04:45:34;;;;;;;13.45;2.00;;;7.70;99.90;;;;;;5027617;28;20084;-80
2022/05/04 04:48:00;;;;;;;10.15;2.10;;;7.70;99.90;;;;;;5028252;28;20080;-81
2022/05/04 04:50:26;;;;;;;10.30;2.15;;;7.80;99.90;;;;;;5028766;28;20524;-80
2022/05/04 04:52:51;;;;;;;13.43;1.98;;;7.80;99.90;;;;;;5027270;28;20503;-80
2022/05/04 04:55:17;;;;;;;9.05;2.25;;;7.80;99.90;;;;;;5016641;28;20104;-80
2022/05/04 04:57:43;;;;;;;13.30;2.40;;;7.80;99.90;;;;;;5024754;28;20548;-80
2022/05/04 05:00:09;;;;;;;10.45;1.95;;;7.90;99.90;;;;;;5039950;28;20044;-81
2022/05/04 05:02:35;;;;;;;9.95;2.15;;;7.80;99.90;;;;;;5024621;28;20092;-80
2022/05/04 05:05:02;;;;;;;7.88;1.75;;;7.90;99.90;;;;;;5041261;28;20077;-81
2022/05/04 05:07:28;;;;;;;9.93;1.92;;;7.90;99.90;;;;;;5040569;28;20052;-80
2022/05/04 05:09:54;;;;;;;9.75;1.80;;;7.90;99.90;;;;;;5041172;28;20053;-80
2022/05/04 05:12:21;;;;;;;11.15;2.20;;;8.00;99.90;;;;;;5041118;28;20145;-80
2022/05/04 05:17:32;;;;;;;17.50;2.22;;;8.00;99.90;;;;;;5041454;28;20148;-80
2022/05/04 05:19:57;;;;;;;11.88;2.65;;;8.00;99.90;;;;;;5040266;28;20046;-80
2022/05/04 05:22:23;;;;;;;9.52;1.45;;;8.00;99.90;;;;;;5040801;28;20108;-81
2022/05/04 05:24:49;;;;;;;12.25;1.95;;;8.00;99.90;;;;;;5040626;28;20034;-80
2022/05/04 05:27:14;;;;;;;11.32;2.15;;;8.00;99.90;;;;;;5040983;28;20049;-80
2022/05/04 05:29:40;;;;;;;10.52;1.77;;;8.10;99.90;;;;;;5039896;28;20054;-80
2022/05/04 05:32:06;;;;;;;10.85;1.52;;;8.00;99.90;;;;;;5039813;28;20397;-80
2022/05/04 05:34:33;;;;;;;11.45;1.90;;;8.10;99.90;;;;;;5040678;28;20374;-80
2022/05/04 05:37:00;;;;;;;11.45;2.13;;;8.10;99.90;;;;;;5040972;28;20140;-80
2022/05/04 05:39:26;;;;;;;14.98;2.88;;;8.10;99.90;;;;;;5040819;28;20041;-81
2022/05/04 05:41:52;;;;;;;12.02;1.98;;;8.10;99.90;;;;;;5039908;28;20415;-80
2022/05/04 05:44:18;;;;;;;11.63;2.22;;;8.20;99.90;;;;;;5040397;28;20078;-80
2022/05/04 05:46:43;;;;;;;10.52;1.80;;;8.20;99.90;;;;;;5040000;28;20104;-80
2022/05/04 05:49:09;;;;;;;12.35;1.92;;;8.30;99.90;;;;;;5039663;28;20042;-80
2022/05/04 05:51:35;;;;;;;13.30;2.33;;;8.30;99.90;;;;;;5040386;28;20092;-80
2022/05/04 05:54:00;;;;;;;9.23;2.22;;;8.40;99.90;;;;;;5023647;28;20493;-79
2022/05/04 05:56:26;;;;;;;9.27;1.63;;;8.30;99.90;;;;;;5039444;28;20112;-79
2022/05/04 05:58:52;;;;;;;10.23;2.00;;;8.40;99.90;;;;;;5040339;28;20041;-80
2022/05/04 06:01:17;;;;;;;8.07;1.60;;;8.40;99.90;;;;;;5040596;28;20073;-79
2022/05/04 06:03:43;;;;;;;14.30;2.53;;;8.50;99.90;;;;;;5039826;28;20052;-79
2022/05/04 06:06:09;;;;;;;11.57;1.92;;;8.50;99.90;;;;;;5040117;28;20145;-79
2022/05/04 06:08:35;;;;;;;11.32;2.10;;;8.80;99.90;;;;;;5022994;28;20129;-80
2022/05/04 06:11:01;;;;;;;10.73;1.95;;;8.60;99.90;;;;;;5039677;28;20042;-80
2022/05/04 06:13:27;;;;;;;13.05;1.80;;;8.50;99.90;;;;;;5040892;28;20084;-79
2022/05/04 06:15:52;;;;;;;12.45;2.00;;;8.60;99.90;;;;;;5039098;28;20081;-80
2022/05/04 06:18:18;;;;;;;11.52;1.95;;;8.60;99.90;;;;;;5039993;28;20519;-80
2022/05/04 06:20:44;;;;;;;7.90;1.83;;;8.60;99.90;;;;;;5007270;28;20180;-80
2022/05/04 06:23:10;;;;;;;10.95;2.25;;;8.60;99.90;;;;;;5040492;28;20096;-80
2022/05/04 06:25:36;;;;;;;9.23;1.70;;;8.70;99.90;;;;;;5040151;28;20054;-80
2022/05/04 06:28:03;;;;;;;12.52;1.95;;;8.80;99.90;;;;;;5051278;28;20045;-84
2022/05/04 06:36:16;;;;;;;13.43;2.42;;;9.00;99.90;;;;;;5030269;28;20493;-80
2022/05/04 06:38:42;;;;;;;10.90;1.80;;;9.10;99.90;;;;;;5026403;28;20048;-81
2022/05/04 06:41:07;;;;;;;9.50;1.40;;;9.20;99.90;;;;;;5025418;28;20056;-80
2022/05/04 06:43:33;;;;;;;10.15;2.35;;;9.30;99.90;;;;;;5027772;28;20041;-81
2022/05/04 06:45:59;;;;;;;13.40;1.80;;;9.40;99.90;;;;;;5024422;28;20053;-80
2022/05/04 06:48:25;;;;;;;10.27;2.33;;;9.40;99.90;;;;;;5027838;28;20593;-80
2022/05/04 06:50:51;;;;;;;9.52;1.63;;;9.50;99.90;;;;;;5024877;28;20052;-81
2022/05/04 06:53:17;;;;;;;8.90;1.83;;;9.60;99.90;;;;;;5025305;28;20043;-80
2022/05/04 06:55:42;;;;;;;8.40;1.75;;;9.60;99.90;;;;;;5024867;28;20041;-80
2022/05/04 06:58:08;;;;;;;7.57;1.40;;;9.60;99.90;;;;;;5025450;28;20076;-81
2022/05/04 07:00:34;;;;;;;10.70;1.55;;;9.70;99.90;;;;;;5052202;28;20108;-80
2022/05/04 07:02:59;;;;;;;11.20;1.80;;;9.80;99.90;;;;;;5026083;28;20057;-80
2022/05/04 07:05:25;;;;;;;13.65;1.75;;;9.90;99.90;;;;;;5025837;28;20045;-81
2022/05/04 07:07:52;;;;;;;11.25;1.90;;;9.90;99.90;;;;;;5025714;28;20049;-80
2022/05/04 07:10:18;;;;;;;7.95;1.77;;;10.00;99.90;;;;;;5009004;28;20066;-80
2022/05/04 07:12:44;;;;;;;7.20;1.70;;;9.90;99.90;;;;;;5026570;28;20103;-80
2022/05/04 07:15:10;;;;;;;11.48;1.65;;;10.00;99.90;;;;;;5024291;28;20045;-80
2022/05/04 07:17:36;;;;;;;12.45;1.75;;;10.10;99.90;;;;;;5025851;28;20124;-80
2022/05/04 07:20:02;;;;;;;10.35;1.70;;;10.20;99.90;;;;;;5010208;28;20120;-80
2022/05/04 07:22:28;;;;;;;12.50;2.38;;;10.20;99.90;;;;;;5013603;28;20061;-80
2022/05/04 07:24:54;;;;;;;15.07;2.20;;;10.30;99.90;;;;;;5030515;28;20045;-81
2022/05/04 07:27:19;;;;;;;16.75;3.17;;;10.30;99.90;;;;;;5029908;28;20049;-80
2022/05/04 07:29:46;;;;;;;8.05;1.33;;;10.30;99.90;;;;;;5029576;28;20122;-80
2022/05/04 07:32:13;;;;;;;10.77;2.00;;;10.30;99.90;;;;;;5029658;28;20057;-83
2022/05/04 07:34:40;;;;;;;14.13;2.25;;;10.30;99.90;;;;;;5029440;28;20545;-83
2022/05/04 07:37:06;;;;;;;15.07;2.40;;;10.40;99.90;;;;;;5029936;28;20049;-83
2022/05/04 07:42:24;;;;;;;11.88;1.80;;;10.50;99.90;;;;;;5028813;28;20492;-80
2022/05/04 07:44:57;;;;;;;10.23;2.17;;;10.70;99.90;;;;;;5015662;28;20045;-80
2022/05/04 07:47:24;;;;;;;12.80;1.90;;;10.60;99.90;;;;;;5043026;28;20061;-80
2022/05/04 07:49:50;;;;;;;13.98;2.00;;;10.80;99.90;;;;;;5025057;28;20038;-80
2022/05/04 07:52:15;;;;;;;11.05;1.60;;;10.80;99.90;;;;;;5043746;28;20357;-81
2022/05/04 07:54:41;;;;;;;9.82;2.22;;;10.90;99.90;;;;;;5043266;28;20496;-81
2022/05/04 07:57:08;;;;;;;14.63;2.10;;;10.90;99.90;;;;;;5041720;28;20108;-82
2022/05/04 07:59:34;;;;;;;11.82;1.98;;;11.10;99.90;;;;;;5042705;28;20412;-80
2022/05/04 08:04:44;;;;;;;12.05;1.83;;;10.80;99.90;;;;;;5043237;28;20481;-80
2022/05/04 08:07:10;;;;;;;7.85;1.70;;;10.90;99.90;;;;;;5026170;28;20046;-80
2022/05/04 08:09:36;;;;;;;8.88;1.90;;;11.00;99.90;;;;;;5042196;28;20108;-81
2022/05/04 08:12:06;;;;;;;12.38;2.05;;;11.50;99.90;;;;;;5025031;28;20077;-80
2022/05/04 08:14:33;;;;;;;9.38;1.98;;;11.10;99.90;;;;;;5042403;28;20076;-79
2022/05/04 08:16:58;;;;;;;10.95;2.03;;;11.50;99.90;;;;;;5040582;28;20085;-80
2022/05/04 08:19:24;;;;;;;9.68;1.70;;;11.10;99.90;;;;;;5025910;28;20076;-80
2022/05/04 08:21:50;;;;;;;8.63;2.05;;;11.00;99.90;;;;;;5024996;28;20057;-80
2022/05/04 08:24:15;;;;;;;7.90;1.88;;;11.00;99.90;;;;;;5025358;28;20034;-80
2022/05/04 08:26:42;;;;;;;9.23;1.73;;;11.10;99.90;;;;;;5025506;28;20100;-80
2022/05/04 08:29:08;;;;;;;7.50;2.28;;;11.10;99.90;;;;;;5041387;28;20046;-80
2022/05/04 08:31:34;;;;;;;6.10;1.30;;;11.10;99.90;;;;;;5039575;28;20057;-80
2022/05/04 08:33:59;;;;;;;7.22;1.70;;;11.20;99.90;;;;;;5024680;28;20046;-80
2022/05/04 08:36:27;;;;;;;13.95;2.17;;;11.00;99.90;;;;;;5042206;28;20048;-80
2022/05/04 08:38:52;;;;;;;12.68;2.58;;;11.10;99.90;;;;;;5039608;28;20049;-80
2022/05/04 08:41:18;;;;;;;9.30;1.90;;;11.10;99.90;;;;;;5027825;28;20037;-80
2022/05/04 08:43:46;;;;;;;10.32;1.98;;;11.00;99.90;;;;;;5028106;28;20577;-80
2022/05/04 08:46:15;;;;;;;11.88;2.22;;;11.00;99.90;;;;;;5022185;28;20041;-81
2022/05/04 08:48:43;;;;;;;7.30;1.80;;;11.00;99.90;;;;;;5028569;28;20413;-80
2022/05/04 08:51:10;;;;;;;10.45;2.40;;;11.10;99.90;;;;;;5026473;28;20049;-80
2022/05/04 08:53:37;;;;;;;12.63;2.30;;;11.30;99.90;;;;;;5028122;28;20045;-81
2022/05/04 08:56:03;;;;;;;12.75;1.63;;;11.40;99.90;;;;;;5019434;28;20477;-81
2022/05/04 08:58:30;;;;;;;9.43;1.95;;;11.50;99.90;;;;;;5028363;28;20061;-81
2022/05/04 09:00:57;;;;;;;7.88;1.77;;;12.10;99.90;;;;;;5009825;28;20409;-81
2022/05/04 09:03:23;;;;;;;10.82;2.50;;;11.60;99.90;;;;;;5061422;28;20053;-81
2022/05/04 09:05:53;;;;;;;9.50;1.88;;;11.90;99.90;;;;;;5027017;28;20111;-81
2022/05/04 09:08:19;;;;;;;10.43;2.00;;;11.70;99.90;;;;;;5028511;28;20094;-81
2022/05/04 09:10:45;;;;;;;13.55;2.30;;;11.70;99.90;;;;;;5027739;28;20148;-81
2022/05/04 09:13:11;;;;;;;14.15;2.28;;;11.90;99.90;;;;;;5026301;28;20508;-80
2022/05/04 09:15:40;;;;;;;7.35;1.95;;;12.00;99.90;;;;;;5025421;28;20796;-81
2022/05/04 09:18:07;;;;;;;8.50;1.45;;;12.10;99.90;;;;;;5011035;28;20057;-81
2022/05/04 09:20:47;;;;;;;11.25;1.88;;;12.10;99.90;;;;;;5043299;28;20037;-81
2022/05/04 09:23:24;;;;;;;9.50;2.08;;;12.20;99.90;;;;;;5052834;28;20517;-80
2022/05/04 09:25:52;;;;;;;9.25;1.85;;;12.10;99.90;;;;;;5010731;28;21027;-80
2022/05/04 09:28:18;;;;;;;7.65;1.77;;;12.20;99.90;;;;;;5027727;28;20041;-80
2022/05/04 09:30:46;;;;;;;10.32;2.42;;;12.30;99.90;;;;;;5026257;28;20057;-80
2022/05/04 09:33:17;;;;;;;10.57;1.98;;;12.30;99.90;;;;;;5028143;28;20058;-79
2022/05/04 09:35:42;;;;;;;6.45;1.77;;;12.10;99.90;;;;;;5026487;28;20084;-80
2022/05/04 09:46:34;;;;;;;8.55;1.88;;;12.10;99.90;;;;;;5039842;28;20050;-80
2022/05/04 09:49:09;;;;;;;12.05;1.88;;;12.30;99.90;;;;;;5040046;28;20498;-80
2022/05/04 09:51:36;;;;;;;11.27;1.83;;;12.30;99.90;;;;;;5024105;28;20041;-79
2022/05/04 09:54:13;;;;;;;10.35;1.67;;;12.20;99.90;;;;;;5023948;28;20049;-80
2022/05/04 09:56:39;;;;;;;9.93;2.03;;;12.30;99.90;;;;;;5008569;28;20046;-80
2022/05/04 09:59:05;;;;;;;11.27;2.00;;;12.30;99.90;;;;;;5023325;28;20057;-79
2022/05/04 10:01:32;;;;;;;11.35;2.35;;;12.40;99.90;;;;;;5040325;28;20046;-80
2022/05/04 10:04:00;;;;;;;11.10;1.63;;;12.80;99.90;;;;;;5040005;28;20042;-79
2022/05/04 10:06:27;;;;;;;8.10;1.88;;;12.70;99.90;;;;;;5009323;28;20046;-79
2022/05/04 10:08:53;;;;;;;7.72;1.73;;;12.60;99.90;;;;;;5039925;28;20096;-80
2022/05/04 10:11:20;;;;;;;12.27;2.17;;;12.80;99.90;;;;;;5039975;28;20081;-79
2022/05/04 10:13:47;;;;;;;9.18;1.73;;;12.80;99.90;;;;;;5040215;28;20045;-80
2022/05/04 10:16:14;;;;;;;11.85;2.22;;;12.70;99.90;;;;;;5007148;28;20061;-79
2022/05/04 10:18:41;;;;;;;7.90;1.95;;;12.70;99.90;;;;;;5015194;28;20044;-79
2022/05/04 10:21:12;;;;;;;11.55;2.00;;;12.90;99.90;;;;;;5025385;28;20124;-80
2022/05/04 10:23:43;;;;;;;7.72;1.55;;;12.80;99.90;;;;;;5008991;28;20040;-80
2022/05/04 10:26:12;;;;;;;9.45;1.80;;;12.80;99.90;;;;;;5025509;28;20469;-80
2022/05/04 10:28:41;;;;;;;9.05;1.95;;;12.90;99.90;;;;;;5026748;28;20091;-80
2022/05/04 10:31:11;;;;;;;11.10;1.80;;;12.90;99.90;;;;;;5022895;28;20058;-80
2022/05/04 10:33:38;;;;;;;10.35;1.77;;;13.10;99.90;;;;;;5010270;28;20499;-80
2022/05/04 10:36:18;;;;;;;7.70;1.83;;;13.20;99.90;;;;;;5026034;28;20045;-80
2022/05/04 10:38:44;;;;;;;11.40;1.90;;;13.40;99.90;;;;;;5025875;28;20093;-80
2022/05/04 10:41:11;;;;;;;9.85;1.63;;;13.60;99.90;;;;;;5027637;28;20045;-79
2022/05/04 10:43:47;;;;;;;9.68;1.83;;;13.80;99.90;;;;;;5026822;28;20045;-79
2022/05/04 10:46:17;;;;;;;11.48;2.10;;;14.00;99.90;;;;;;5024774;28;20081;-79
2022/05/04 10:48:49;;;;;;;9.98;2.10;;;14.20;99.90;;;;;;5026788;28;20132;-79
2022/05/04 10:51:24;;;;;;;8.57;1.93;;;14.10;99.90;;;;;;5025148;28;20045;-79
2022/05/04 10:54:11;;;;;;;10.85;2.10;;;14.00;99.90;;;;;;5008673;28;20103;-79
2022/05/04 10:56:44;;;;;;;7.85;1.83;;;14.20;99.90;;;;;;5025968;28;20037;-79
2022/05/04 10:59:11;;;;;;;9.82;1.80;;;14.50;99.90;;;;;;5025314;28;20045;-79
2022/05/04 11:01:38;;;;;;;6.22;1.55;;;14.50;99.90;;;;;;5040678;28;20082;-79
2022/05/04 11:04:09;;;;;;;10.35;1.50;;;14.30;99.60;;;;;;5025775;28;20425;-79
2022/05/04 11:06:41;;;;;;;11.30;2.10;;;14.00;99.30;;;;;;5026164;28;20038;-79
2022/05/04 11:09:10;;;;;;;10.93;1.92;;;13.70;99.70;;;;;;5026055;28;20046;-80
2022/05/04 11:11:37;;;;;;;8.77;1.65;;;13.60;99.50;;;;;;5025003;28;20042;-80
2022/05/04 11:14:04;;;;;;;7.93;1.80;;;13.40;99.60;;;;;;5008652;28;20053;-80
2022/05/04 11:16:30;;;;;;;8.38;2.47;;;13.30;99.70;;;;;;5024756;28;20052;-79
2022/05/04 11:18:58;;;;;;;9.23;1.88;;;13.40;99.90;;;;;;5025903;28;20041;-79
2022/05/04 11:21:26;;;;;;;10.50;1.50;;;13.50;99.50;;;;;;5025144;28;20049;-80
2022/05/04 11:23:54;;;;;;;10.82;1.77;;;13.50;99.70;;;;;;5026287;28;20041;-79
2022/05/04 11:26:22;;;;;;;7.82;1.85;;;13.60;99.90;;;;;;5008627;28;20053;-80
2022/05/04 11:28:48;;;;;;;8.18;1.77;;;13.80;99.90;;;;;;5009078;28;20064;-79
2022/05/04 11:31:15;;;;;;;12.30;2.25;;;13.90;99.90;;;;;;5024441;28;20053;-79
2022/05/04 11:33:42;;;;;;;7.10;1.85;;;14.00;99.90;;;;;;5025332;28;20053;-79
2022/05/04 11:36:08;;;;;;;11.18;2.17;;;14.20;99.90;;;;;;5025107;28;20051;-79
2022/05/04 11:38:34;;;;;;;6.85;1.90;;;14.30;99.90;;;;;;5025889;28;20057;-79
2022/05/04 11:41:01;;;;;;;8.85;1.63;;;14.40;99.50;;;;;;5024372;28;20394;-79
2022/05/04 11:43:30;;;;;;;13.10;2.42;;;14.40;99.50;;;;;;5026123;28;20042;-81
2022/05/04 11:45:55;;;;;;;10.73;1.90;;;14.60;99.80;;;;;;5024436;28;20511;-79
2022/05/04 11:48:22;;;;;;;11.00;1.73;;;14.60;99.00;;;;;;5025524;28;20120;-79
2022/05/04 11:50:49;;;;;;;8.25;1.70;;;14.70;98.70;;;;;;5024669;28;20049;-80
2022/05/04 11:53:14;;;;;;;12.55;2.25;;;14.90;98.80;;;;;;5009525;28;20389;-79
2022/05/04 11:55:41;;;;;;;9.05;2.35;;;15.10;99.00;;;;;;5025856;28;20140;-79
2022/05/04 11:58:11;;;;;;;7.95;1.60;;;15.10;97.90;;;;;;5026421;28;20045;-79
2022/05/04 12:00:38;;;;;;;9.18;1.65;;;15.20;98.00;;;;;;5019111;28;20842;-79
2022/05/04 12:03:05;;;;;;;8.52;1.67;;;15.20;97.90;;;;;;5020272;28;20511;-79
2022/05/04 12:05:33;;;;;;;11.10;1.58;;;15.10;97.60;;;;;;5009306;28;20045;-78
2022/05/04 12:07:59;;;;;;;6.97;1.88;;;14.80;96.40;;;;;;5017357;28;20060;-79
2022/05/04 12:10:26;;;;;;;14.68;2.10;;;14.40;96.50;;;;;;5028722;28;20041;-79
2022/05/04 12:12:52;;;;;;;12.93;2.30;;;14.00;96.40;;;;;;5024862;28;20060;-79
2022/05/04 12:15:22;;;;;;;6.93;1.63;;;13.70;96.70;;;;;;5057856;28;20052;-79
2022/05/04 12:17:48;;;;;;;9.00;1.67;;;13.60;96.80;;;;;;5027764;28;20059;-79
2022/05/04 12:20:19;;;;;;;12.75;2.20;;;13.40;97.00;;;;;;5029762;28;20120;-79
2022/05/04 12:22:46;;;;;;;9.98;1.77;;;13.60;97.90;;;;;;5020339;28;20042;-78
2022/05/04 12:25:11;;;;;;;8.95;1.73;;;13.80;98.10;;;;;;5048505;28;20107;-78
2022/05/04 12:27:38;;;;;;;9.10;1.75;;;14.00;97.70;;;;;;5010599;28;20061;-78
2022/05/04 12:33:08;;;;;;;9.90;1.98;;;14.10;97.00;;;;;;5028693;28;20111;-78
2022/05/04 12:35:37;;;;;;;9.10;1.77;;;14.30;97.80;;;;;;5027461;28;20113;-78
2022/05/04 12:38:03;;;;;;;7.95;2.40;;;14.40;97.50;;;;;;5024712;28;20061;-78
2022/05/04 12:40:33;;;;;;;6.65;2.00;;;14.50;98.20;;;;;;5010759;28;20073;-79
2022/05/04 12:43:00;;;;;;;14.48;2.20;;;14.70;97.70;;;;;;5026373;28;20068;-78
2022/05/04 12:45:27;;;;;;;8.93;2.08;;;14.90;98.70;;;;;;5026889;28;20041;-79
2022/05/04 12:47:54;;;;;;;9.02;1.70;;;15.10;99.70;;;;;;5027173;28;20046;-79
2022/05/04 12:50:21;;;;;;;11.90;2.22;;;15.30;99.20;;;;;;5028420;28;20049;-79
2022/05/04 12:52:48;;;;;;;9.05;2.30;;;15.50;97.70;;;;;;5023646;28;20420;-83
2022/05/04 12:55:15;;;;;;;10.48;2.63;;;15.60;97.00;;;;;;5024340;28;20038;-82
2022/05/04 12:57:40;;;;;;;9.32;2.00;;;15.60;96.50;;;;;;5024048;28;20459;-82
2022/05/04 13:00:07;;;;;;;11.73;2.00;;;15.60;95.70;;;;;;5022403;28;20586;-81
2022/05/04 13:02:32;;;;;;;10.15;2.40;;;15.40;95.50;;;;;;5027023;28;20045;-82
2022/05/04 13:04:58;;;;;;;8.88;2.00;;;15.20;95.20;;;;;;5025421;28;20041;-80
2022/05/04 13:07:24;;;;;;;14.98;2.33;;;15.00;95.20;;;;;;5028478;28;20480;-81
2022/05/04 13:09:49;;;;;;;18.38;2.42;;;14.90;95.20;;;;;;5010427;28;20052;-82
2022/05/04 13:12:15;;;;;;;12.18;2.22;;;15.00;95.30;;;;;;5020882;28;20042;-80
2022/05/04 13:14:41;;;;;;;9.10;2.17;;;15.10;95.30;;;;;;5023118;28;20044;-79
2022/05/04 13:17:07;;;;;;;9.15;1.80;;;15.10;95.20;;;;;;5009884;28;20515;-81